createdAt,value
2018-06-04T00:00:13.763Z,96.80
2018-06-04T00:02:48.759Z,97.10
2018-06-04T00:05:23.938Z,97.20
2018-06-04T00:07:59.277Z,97.40
2018-06-04T00:10:34.374Z,97.50
2018-06-04T00:15:44.392Z,97.80
2018-06-04T00:18:19.391Z,97.80
2018-06-04T00:20:54.440Z,97.80
2018-06-04T00:23:29.599Z,97.90
2018-06-04T00:26:04.815Z,98.00
2018-06-04T00:28:44.261Z,98.10
2018-06-04T00:31:26.349Z,98.10
2018-06-04T00:34:01.514Z,98.30
2018-06-04T00:36:36.871Z,98.30
2018-06-04T00:39:12.809Z,98.20
2018-06-04T00:41:49.379Z,98.40
2018-06-04T00:44:24.616Z,98.30
2018-06-04T00:46:59.751Z,98.40
2018-06-04T00:49:35.076Z,98.30
2018-06-04T00:52:10.227Z,98.40
2018-06-04T00:54:45.569Z,98.40
2018-06-04T00:57:20.900Z,98.40
2018-06-04T00:59:55.990Z,98.30
2018-06-04T01:02:31.334Z,98.20
2018-06-04T01:05:06.269Z,98.30
2018-06-04T01:07:41.368Z,98.20
2018-06-04T01:10:16.534Z,98.30
2018-06-04T01:12:51.446Z,98.20
2018-06-04T01:15:26.757Z,98.30
2018-06-04T01:18:01.823Z,98.30
2018-06-04T01:20:37.061Z,98.30
2018-06-04T01:23:12.406Z,98.40
2018-06-04T01:25:47.954Z,98.40
2018-06-04T01:28:23.106Z,98.50
2018-06-04T01:30:59.050Z,98.40
2018-06-04T01:33:34.044Z,98.50
2018-06-04T01:36:09.526Z,98.40
2018-06-04T01:38:44.663Z,98.40
2018-06-04T01:41:19.676Z,98.50
2018-06-04T01:43:54.836Z,98.60
2018-06-04T01:46:29.652Z,98.70
2018-06-04T01:49:04.937Z,98.70
2018-06-04T01:51:39.738Z,98.70
2018-06-04T01:54:14.878Z,99.10
2018-06-04T01:56:50.832Z,99.30
2018-06-04T01:59:25.988Z,99.20
2018-06-04T02:02:01.157Z,99.10
2018-06-04T02:04:36.349Z,99.00
2018-06-04T02:07:11.543Z,99.20
2018-06-04T02:09:46.932Z,99.00
2018-06-04T02:12:22.371Z,98.80
2018-06-04T02:14:57.364Z,98.90
2018-06-04T02:17:32.605Z,98.60
2018-06-04T02:20:08.324Z,98.70
2018-06-04T02:25:18.403Z,98.80
2018-06-04T02:27:53.758Z,98.80
2018-06-04T02:30:29.379Z,98.60
2018-06-04T02:33:04.743Z,98.90
2018-06-04T02:35:39.767Z,99.00
2018-06-04T02:38:15.238Z,99.00
2018-06-04T02:40:50.833Z,99.00
2018-06-04T02:43:25.941Z,99.10
2018-06-04T02:46:01.230Z,98.70
2018-06-04T02:48:36.865Z,99.00
2018-06-04T02:51:12.029Z,99.00
2018-06-04T02:53:47.238Z,99.00
2018-06-04T02:56:22.712Z,98.80
2018-06-04T02:58:58.413Z,98.80
2018-06-04T03:01:33.669Z,99.00
2018-06-04T03:04:08.980Z,99.00
2018-06-04T03:06:44.635Z,99.00
2018-06-04T03:09:19.749Z,99.20
2018-06-04T03:11:55.304Z,99.20
2018-06-04T03:14:30.527Z,99.10
2018-06-04T03:17:06.095Z,98.80
2018-06-04T03:19:41.376Z,98.90
2018-06-04T03:22:16.904Z,99.00
2018-06-04T03:24:51.995Z,99.10
2018-06-04T03:27:27.200Z,99.40
2018-06-04T03:30:02.126Z,98.90
2018-06-04T03:32:37.349Z,99.00
2018-06-04T03:35:12.306Z,98.90
2018-06-04T03:37:47.412Z,99.30
2018-06-04T03:40:22.543Z,99.30
2018-06-04T03:42:57.921Z,99.20
2018-06-04T03:48:08.337Z,99.00
2018-06-04T03:50:43.541Z,99.00
2018-06-04T03:53:18.594Z,99.10
2018-06-04T03:55:54.709Z,99.30
2018-06-04T03:58:29.940Z,99.30
2018-06-04T04:01:04.872Z,98.80
2018-06-04T04:03:40.713Z,98.70
2018-06-04T04:06:15.797Z,98.70
2018-06-04T04:08:50.832Z,98.60
2018-06-04T04:11:26.689Z,98.60
2018-06-04T04:14:01.640Z,98.50
2018-06-04T04:16:39.111Z,98.40
2018-06-04T04:19:13.846Z,98.80
2018-06-04T04:21:48.989Z,99.30
2018-06-04T04:24:24.321Z,98.20
2018-06-04T04:26:59.494Z,98.40
2018-06-04T04:29:34.704Z,98.40
2018-06-04T04:32:09.665Z,98.20
2018-06-04T04:34:44.860Z,98.30
2018-06-04T04:37:20.287Z,98.50
2018-06-04T04:39:55.381Z,98.70
2018-06-04T04:42:30.717Z,98.80
2018-06-04T04:45:05.864Z,98.70
2018-06-04T04:47:40.894Z,98.60
2018-06-04T04:50:17.068Z,98.30
2018-06-04T04:52:52.236Z,98.40
2018-06-04T04:55:27.247Z,98.30
2018-06-04T04:58:03.633Z,98.20
2018-06-04T05:00:39.218Z,98.10
2018-06-04T05:03:14.548Z,98.20
2018-06-04T05:05:49.760Z,98.30
2018-06-04T05:08:24.873Z,98.20
2018-06-04T05:11:00.880Z,98.20
2018-06-04T05:13:36.456Z,98.00
2018-06-04T05:16:11.398Z,98.10
2018-06-04T05:18:46.747Z,97.80
2018-06-04T05:21:22.422Z,97.90
2018-06-04T05:23:57.579Z,97.60
2018-06-04T05:26:32.924Z,97.60
2018-06-04T05:29:08.156Z,97.40
2018-06-04T05:34:19.222Z,97.30
2018-06-04T05:36:54.366Z,97.10
2018-06-04T05:39:29.412Z,97.20
2018-06-04T05:42:05.089Z,97.00
2018-06-04T05:44:40.391Z,96.80
2018-06-04T05:49:50.513Z,96.60
2018-06-04T05:55:06.570Z,96.30
2018-06-04T05:57:44.837Z,96.10
2018-06-04T06:00:20.385Z,96.00
2018-06-04T06:02:55.894Z,95.60
2018-06-04T06:05:37.658Z,95.60
2018-06-04T06:08:13.228Z,95.40
2018-06-04T06:10:48.237Z,95.10
2018-06-04T06:13:23.857Z,95.00
2018-06-04T06:15:59.870Z,95.20
2018-06-04T06:18:34.966Z,95.10
2018-06-04T06:21:10.131Z,94.80
2018-06-04T06:23:45.829Z,94.60
2018-06-04T06:26:21.078Z,94.40
2018-06-04T06:28:56.620Z,94.30
2018-06-04T06:31:31.395Z,94.30
2018-06-04T06:34:06.385Z,93.80
2018-06-04T06:36:41.321Z,93.70
2018-06-04T06:39:17.132Z,93.60
2018-06-04T06:41:52.292Z,93.70
2018-06-04T06:44:27.555Z,93.90
2018-06-04T06:47:02.690Z,93.70
2018-06-04T06:49:37.724Z,93.50
2018-06-04T06:52:12.907Z,93.00
2018-06-04T06:54:48.315Z,93.00
2018-06-04T06:57:23.434Z,92.80
2018-06-04T06:59:58.863Z,92.90
2018-06-04T07:02:33.592Z,93.20
2018-06-04T07:05:08.822Z,92.80
2018-06-04T07:07:43.819Z,92.80
2018-06-04T07:10:19.357Z,92.70
2018-06-04T07:12:55.433Z,93.10
2018-06-04T07:15:30.853Z,92.80
2018-06-04T07:18:05.987Z,92.30
2018-06-04T07:20:41.220Z,92.30
2018-06-04T07:25:51.426Z,92.20
2018-06-04T07:28:26.621Z,92.10
2018-06-04T07:33:36.559Z,91.70
2018-06-04T07:36:12.697Z,91.50
2018-06-04T07:38:47.831Z,91.50
2018-06-04T07:41:22.871Z,91.60
2018-06-04T07:43:57.707Z,91.30
2018-06-04T07:46:32.971Z,91.20
2018-06-04T07:49:08.099Z,90.90
2018-06-04T07:51:43.176Z,90.60
2018-06-04T07:54:18.115Z,90.70
2018-06-04T07:56:53.144Z,90.40
2018-06-04T07:59:28.154Z,90.40
2018-06-04T08:02:02.947Z,90.30
2018-06-04T08:04:38.318Z,89.10
2018-06-04T08:07:13.187Z,89.50
2018-06-04T08:09:48.834Z,89.00
2018-06-04T08:12:23.765Z,88.50
2018-06-04T08:14:58.845Z,87.90
2018-06-04T08:17:33.831Z,87.80
2018-06-04T08:22:43.424Z,86.00
2018-06-04T08:25:18.216Z,85.90
2018-06-04T08:27:54.242Z,85.30
2018-06-04T08:30:28.896Z,85.20
2018-06-04T08:33:03.558Z,85.50
2018-06-04T08:35:38.147Z,85.90
2018-06-04T08:38:12.867Z,84.60
2018-06-04T08:40:47.633Z,84.00
2018-06-04T08:43:22.443Z,84.00
2018-06-04T08:45:58.043Z,83.70
2018-06-04T08:48:32.875Z,83.10
2018-06-04T08:51:07.664Z,83.30
2018-06-04T08:53:42.322Z,83.10
2018-06-04T08:56:17.124Z,83.30
2018-06-04T08:58:51.849Z,83.10
2018-06-04T09:01:26.531Z,81.50
2018-06-04T09:04:01.337Z,81.70
2018-06-04T09:06:36.432Z,81.30
2018-06-04T09:09:11.569Z,78.60
2018-06-04T09:11:46.580Z,77.50
2018-06-04T09:14:21.587Z,76.90
2018-06-04T09:19:31.378Z,76.30
2018-06-04T09:22:06.520Z,76.70
2018-06-04T09:24:41.677Z,76.60
2018-06-04T09:27:17.136Z,75.90
2018-06-04T09:29:51.915Z,76.00
2018-06-04T09:32:27.059Z,76.40
2018-06-04T09:35:02.330Z,76.00
2018-06-04T09:37:37.507Z,75.00
2018-06-04T09:40:12.356Z,75.20
2018-06-04T09:42:47.495Z,74.30
2018-06-04T09:45:22.621Z,73.80
2018-06-04T09:47:57.742Z,72.70
2018-06-04T09:50:32.862Z,73.10
2018-06-04T09:53:07.980Z,74.80
2018-06-04T09:55:43.080Z,73.80
2018-06-04T09:58:18.134Z,72.60
2018-06-04T10:00:53.691Z,72.00
2018-06-04T10:03:29.351Z,70.60
2018-06-04T10:06:05.616Z,69.30
2018-06-04T10:08:40.715Z,68.60
2018-06-04T10:11:16.192Z,68.70
2018-06-04T10:13:51.604Z,68.60
2018-06-04T10:16:27.036Z,67.80
2018-06-04T10:19:02.080Z,67.30
2018-06-04T10:21:37.345Z,68.30
2018-06-04T10:24:12.535Z,67.80
2018-06-04T10:26:47.528Z,68.60
2018-06-04T10:29:22.473Z,69.60
2018-06-04T10:31:57.580Z,69.00
2018-06-04T10:34:32.817Z,68.70
2018-06-04T10:37:07.891Z,68.50
2018-06-04T10:39:42.699Z,68.20
2018-06-04T10:42:24.211Z,68.10
2018-06-04T10:44:59.072Z,68.30
2018-06-04T10:47:34.265Z,68.00
2018-06-04T10:50:10.708Z,68.10
2018-06-04T10:52:45.772Z,68.40
2018-06-04T10:55:20.644Z,67.50
2018-06-04T10:57:55.404Z,67.60
2018-06-04T11:00:30.313Z,66.40
2018-06-04T11:03:05.238Z,65.80
2018-06-04T11:08:14.735Z,64.90
2018-06-04T11:10:49.678Z,64.30
2018-06-04T11:15:58.957Z,58.80
2018-06-04T11:18:33.794Z,58.00
2018-06-04T11:21:08.699Z,57.80
2018-06-04T11:23:43.486Z,57.90
2018-06-04T11:26:18.568Z,57.90
2018-06-04T11:28:53.486Z,57.90
2018-06-04T11:31:28.398Z,57.90
2018-06-04T11:34:03.272Z,55.40
2018-06-04T11:36:38.094Z,57.60
2018-06-04T11:39:12.939Z,57.00
2018-06-04T11:41:47.699Z,55.60
2018-06-04T11:44:22.611Z,54.80
2018-06-04T11:46:57.587Z,54.70
2018-06-04T11:49:32.482Z,54.40
2018-06-04T11:52:07.575Z,53.80
2018-06-04T11:54:42.351Z,55.90
2018-06-04T11:57:17.197Z,56.30
2018-06-04T11:59:52.067Z,57.40
2018-06-04T12:02:27.196Z,54.80
2018-06-04T12:05:02.257Z,56.80
2018-06-04T12:07:36.979Z,59.00
2018-06-04T12:10:11.744Z,55.80
2018-06-04T12:12:46.594Z,49.40
2018-06-04T12:15:21.629Z,48.70
2018-06-04T12:17:56.307Z,52.10
2018-06-04T12:20:32.117Z,53.60
2018-06-04T12:23:06.851Z,55.90
2018-06-04T12:25:41.523Z,57.90
2018-06-04T12:28:16.172Z,49.60
2018-06-04T12:30:51.278Z,48.60
2018-06-04T12:33:26.252Z,51.80
2018-06-04T12:36:00.996Z,53.20
2018-06-04T12:38:36.037Z,55.50
2018-06-04T12:41:11.057Z,56.60
2018-06-04T12:43:45.791Z,55.00
2018-06-04T12:46:20.672Z,49.40
2018-06-04T12:48:55.524Z,45.60
2018-06-04T12:51:30.384Z,43.40
2018-06-04T12:54:05.313Z,42.50
2018-06-04T12:56:40.256Z,42.30
2018-06-04T12:59:14.984Z,42.70
2018-06-04T13:01:50.013Z,42.20
2018-06-04T13:04:25.120Z,41.70
2018-06-04T13:06:59.720Z,42.20
2018-06-04T13:09:34.910Z,42.10
2018-06-04T13:12:09.993Z,42.50
2018-06-04T13:14:44.940Z,41.60
2018-06-04T13:19:54.250Z,42.40
2018-06-04T13:25:04.599Z,41.10
2018-06-04T13:27:40.410Z,41.20
2018-06-04T13:30:15.400Z,41.50
2018-06-04T13:32:50.652Z,41.60
2018-06-04T13:35:25.531Z,42.70
2018-06-04T13:38:00.442Z,42.90
2018-06-04T13:40:35.635Z,41.40
2018-06-04T13:43:10.964Z,41.50
2018-06-04T13:45:45.889Z,42.00
2018-06-04T13:48:21.278Z,41.70
2018-06-04T13:50:56.341Z,42.10
2018-06-04T13:53:31.487Z,42.60
2018-06-04T13:56:06.407Z,43.10
2018-06-04T13:58:41.439Z,42.50
2018-06-04T14:01:16.370Z,43.40
2018-06-04T14:03:51.655Z,44.10
2018-06-04T14:06:26.410Z,46.50
2018-06-04T14:09:01.615Z,46.00
2018-06-04T14:11:37.019Z,45.70
2018-06-04T14:14:12.263Z,46.20
2018-06-04T14:16:47.299Z,47.50
2018-06-04T14:19:28.769Z,49.20
2018-06-04T14:22:03.718Z,49.50
2018-06-04T14:24:39.803Z,49.20
2018-06-04T14:27:14.640Z,50.10
2018-06-04T14:29:49.376Z,50.80
2018-06-04T14:32:24.341Z,50.90
2018-06-04T14:34:59.224Z,50.90
2018-06-04T14:37:34.345Z,51.80
2018-06-04T14:40:10.473Z,52.20
2018-06-04T14:45:20.745Z,53.80
2018-06-04T14:47:55.734Z,54.00
2018-06-04T14:50:30.517Z,53.10
2018-06-04T14:53:05.824Z,54.70
2018-06-04T14:55:40.932Z,55.10
2018-06-04T14:58:16.041Z,54.80
2018-06-04T15:00:51.207Z,55.30
2018-06-04T15:03:26.161Z,55.40
2018-06-04T15:06:00.909Z,56.20
2018-06-04T15:08:36.312Z,57.10
2018-06-04T15:11:11.825Z,58.00
2018-06-04T15:13:47.065Z,59.30
2018-06-04T15:16:21.976Z,59.60
2018-06-04T15:18:56.734Z,59.90
2018-06-04T15:21:31.681Z,60.10
2018-06-04T15:24:06.819Z,60.50
2018-06-04T15:26:42.091Z,61.00
2018-06-04T15:29:17.496Z,61.20
2018-06-04T15:31:52.221Z,61.70
2018-06-04T15:34:27.258Z,61.90
2018-06-04T15:37:02.982Z,61.80
2018-06-04T15:39:38.431Z,62.10
2018-06-04T15:42:14.389Z,62.20
2018-06-04T15:44:49.962Z,62.80
2018-06-04T15:47:25.269Z,63.80
2018-06-04T15:50:00.325Z,63.00
2018-06-04T15:52:36.682Z,63.10
2018-06-04T15:55:11.584Z,62.90
2018-06-04T15:57:46.633Z,62.60
2018-06-04T16:00:21.834Z,63.20
2018-06-04T16:02:56.688Z,63.90
2018-06-04T16:05:31.852Z,63.40
2018-06-04T16:08:06.817Z,62.70
2018-06-04T16:10:41.848Z,65.10
2018-06-04T16:13:17.173Z,66.00
2018-06-04T16:15:52.387Z,66.70
2018-06-04T16:18:28.147Z,66.40
2018-06-04T16:21:04.483Z,65.60
2018-06-04T16:23:40.429Z,67.10
2018-06-04T16:26:15.454Z,66.80
2018-06-04T16:28:50.645Z,66.80
2018-06-04T16:31:26.368Z,65.90
2018-06-04T16:34:01.467Z,66.00
2018-06-04T16:36:36.741Z,67.20
2018-06-04T16:39:11.791Z,68.00
2018-06-04T16:41:47.194Z,68.00
2018-06-04T16:44:22.190Z,69.10
2018-06-04T16:46:57.170Z,69.70
2018-06-04T16:49:32.353Z,69.20
2018-06-04T16:52:07.428Z,70.00
2018-06-04T16:54:44.165Z,70.60
2018-06-04T16:57:19.721Z,70.20
2018-06-04T16:59:54.888Z,70.40
2018-06-04T17:02:30.538Z,69.60
2018-06-04T17:05:06.010Z,70.30
2018-06-04T17:07:41.096Z,70.80
2018-06-04T17:10:16.595Z,70.20
2018-06-04T17:12:51.906Z,70.30
2018-06-04T17:15:27.804Z,70.80
2018-06-04T17:18:02.822Z,70.80
2018-06-04T17:20:37.914Z,71.30
2018-06-04T17:23:13.688Z,72.30
2018-06-04T17:25:48.963Z,72.00
2018-06-04T17:28:23.989Z,72.00
2018-06-04T17:30:59.832Z,72.50
2018-06-04T17:33:35.253Z,71.70
2018-06-04T17:36:10.556Z,72.50
2018-06-04T17:38:45.449Z,72.40
2018-06-04T17:41:20.765Z,73.10
2018-06-04T17:43:55.909Z,74.40
2018-06-04T17:46:31.092Z,74.00
2018-06-04T17:49:06.480Z,74.90
2018-06-04T17:51:41.509Z,74.70
2018-06-04T17:54:16.574Z,76.20
2018-06-04T17:56:51.758Z,76.10
2018-06-04T17:59:27.005Z,76.50
2018-06-04T18:02:02.162Z,77.50
2018-06-04T18:04:37.387Z,78.10
2018-06-04T18:07:12.245Z,77.60
2018-06-04T18:09:47.389Z,77.30
2018-06-04T18:12:23.174Z,78.00
2018-06-04T18:14:58.173Z,77.90
2018-06-04T18:17:33.110Z,78.70
2018-06-04T18:20:08.221Z,79.20
2018-06-04T18:22:43.221Z,80.20
2018-06-04T18:25:18.532Z,80.70
2018-06-04T18:27:53.558Z,81.90
2018-06-04T18:30:28.588Z,80.30
2018-06-04T18:33:03.708Z,80.40
2018-06-04T18:35:38.835Z,81.90
2018-06-04T18:38:13.879Z,82.50
2018-06-04T18:40:49.094Z,83.20
2018-06-04T18:43:24.946Z,83.70
2018-06-04T18:46:00.958Z,83.40
2018-06-04T18:48:36.031Z,83.70
2018-06-04T18:51:11.253Z,84.30
2018-06-04T18:53:47.625Z,84.30
2018-06-04T18:56:22.682Z,84.80
2018-06-04T18:58:57.784Z,85.00
2018-06-04T19:01:33.448Z,85.10
2018-06-04T19:04:08.524Z,85.80
2018-06-04T19:06:43.611Z,86.20
2018-06-04T19:09:18.953Z,86.20
2018-06-04T19:11:54.034Z,85.30
2018-06-04T19:14:29.833Z,85.80
2018-06-04T19:17:04.993Z,87.00
2018-06-04T19:19:40.805Z,86.80
2018-06-04T19:22:15.984Z,86.90
2018-06-04T19:24:50.989Z,87.30
2018-06-04T19:27:26.332Z,87.50
2018-06-04T19:30:01.574Z,88.70
2018-06-04T19:32:36.676Z,89.20
2018-06-04T19:35:12.050Z,89.50
2018-06-04T19:37:47.420Z,89.10
2018-06-04T19:40:23.758Z,89.70
2018-06-04T19:42:59.104Z,89.90
2018-06-04T19:45:34.717Z,90.40
2018-06-04T19:48:09.579Z,90.50
2018-06-04T19:50:44.615Z,90.50
2018-06-04T19:55:55.159Z,91.40
2018-06-04T19:58:30.541Z,91.20
2018-06-04T20:01:05.517Z,91.40
2018-06-04T20:03:41.122Z,91.50
2018-06-04T20:06:23.224Z,91.70
2018-06-04T20:09:02.740Z,91.80
2018-06-04T20:11:38.333Z,91.80
2018-06-04T20:14:13.448Z,91.40
2018-06-04T20:16:49.484Z,91.30
2018-06-04T20:19:24.326Z,91.60
2018-06-04T20:21:59.339Z,91.70
2018-06-04T20:24:34.306Z,91.70
2018-06-04T20:27:09.545Z,91.70
2018-06-04T20:29:44.561Z,91.80
2018-06-04T20:32:19.712Z,91.70
2018-06-04T20:34:54.752Z,91.90
2018-06-04T20:37:29.927Z,91.90
2018-06-04T20:40:05.669Z,92.20
2018-06-04T20:42:41.191Z,92.40
2018-06-04T20:45:19.406Z,92.30
2018-06-04T20:47:57.510Z,92.20
2018-06-04T20:50:32.950Z,92.10
2018-06-04T20:53:08.571Z,92.00
2018-06-04T20:55:43.498Z,92.40
2018-06-04T20:58:20.122Z,91.80
2018-06-04T21:00:55.164Z,91.70
2018-06-04T21:03:30.280Z,90.80
2018-06-04T21:06:12.571Z,91.30
2018-06-04T21:08:47.959Z,91.20
2018-06-04T21:11:24.468Z,90.40
2018-06-04T21:13:59.157Z,90.90
2018-06-04T21:16:34.598Z,90.70
2018-06-04T21:19:10.217Z,90.90
2018-06-04T21:21:45.457Z,91.10
2018-06-04T21:26:55.155Z,89.70
2018-06-04T21:29:30.377Z,89.00
2018-06-04T21:32:05.836Z,88.20
2018-06-04T21:34:41.489Z,89.50
2018-06-04T21:37:16.806Z,90.20
2018-06-04T21:39:52.405Z,90.40
2018-06-04T21:42:27.826Z,90.70
2018-06-04T21:47:40.108Z,90.80
2018-06-04T21:50:15.968Z,90.70
2018-06-04T21:52:51.195Z,90.80
2018-06-04T21:55:27.467Z,90.90
2018-06-04T21:58:03.424Z,90.90
2018-06-04T22:00:38.967Z,91.00
2018-06-04T22:03:18.715Z,91.10
2018-06-04T22:05:54.052Z,91.00
2018-06-04T22:08:29.838Z,91.00
2018-06-04T22:11:05.246Z,91.00
2018-06-04T22:13:40.496Z,91.40
2018-06-04T22:16:15.591Z,91.30
2018-06-04T22:18:51.575Z,91.30
2018-06-04T22:21:26.885Z,91.30
2018-06-04T22:24:02.580Z,91.20
2018-06-04T22:26:37.930Z,91.30
2018-06-04T22:29:13.357Z,91.10
2018-06-04T22:31:49.838Z,91.10
2018-06-04T22:34:26.777Z,91.30
2018-06-04T22:37:02.336Z,91.40
2018-06-04T22:39:37.546Z,91.50
2018-06-04T22:42:13.939Z,91.60
2018-06-04T22:44:49.742Z,91.40
2018-06-04T22:47:25.118Z,91.40
2018-06-04T22:59:46.555Z,91.40
2018-06-04T23:02:21.654Z,91.50
2018-06-04T23:04:57.449Z,91.80
2018-06-04T23:07:32.836Z,91.70
2018-06-04T23:10:08.741Z,91.80
2018-06-04T23:12:44.477Z,91.90
2018-06-04T23:15:19.782Z,92.10
2018-06-04T23:17:54.974Z,92.10
2018-06-04T23:20:30.872Z,92.10
2018-06-04T23:23:06.210Z,92.20
2018-06-04T23:25:41.711Z,92.20
2018-06-04T23:28:17.197Z,92.30
2018-06-04T23:30:52.539Z,92.20
2018-06-04T23:33:28.015Z,92.20
2018-06-04T23:36:11.472Z,91.90
2018-06-04T23:38:49.577Z,91.90
2018-06-04T23:41:25.548Z,91.60
2018-06-04T23:44:01.120Z,91.60
2018-06-04T23:46:36.490Z,91.10
2018-06-04T23:49:13.243Z,90.10
2018-06-04T23:51:50.394Z,89.70
2018-06-04T23:54:29.648Z,90.70
2018-06-04T23:57:05.483Z,90.90
2018-06-04T23:59:41.097Z,91.20
